Flight Track Log - Related Links

Times and Time Zones

All times are in EDT time to prevent confusion due to time zone crossing. See the SWA1086 flight status page for this flight to view local times or setup timezone preferences in your user account.

Time Position Orientation Groundspeed Altitude Reporting Facility
EDT Latitude Longitude Course Direction KTS MPH feet Rate Location/Type
Mon 11:03:14 AM 35.3747 -97.5944 198° South 147 169 1,700  Level Fort Worth Center
Mon 11:04:15 AM 35.3311 -97.6119 198° South 204 235 3,600 2,579 Climbing Fort Worth Center
Mon 11:05:15 AM 35.3747 -97.6581 319° Northwest 253 291 6,900 2,777 Climbing Fort Worth Center
Mon 11:06:16 AM 35.4561 -97.6786 348° North 323 372 9,200 2,410 Climbing Fort Worth Center
Mon 11:07:17 AM 35.5478 -97.7019 348° North 342 394 11,800 2,620 Climbing Fort Worth Center
Mon 11:09:49 AM 35.8017 -97.6061 17° North 388 447 18,500 2,439 Climbing Kansas City Center
Mon 11:10:51 AM 35.9081 -97.5572 20° North 400 460 20,500 1,935 Climbing Kansas City Center
Mon 11:11:53 AM 36.0203 -97.5042 21° North 421 484 22,500 1,742 Climbing Kansas City Center
Mon 11:12:55 AM 36.1350 -97.4500 21° North 434 499 24,100 1,756 Climbing Kansas City Center
Mon 11:13:56 AM 36.2547 -97.3936 21° North 450 518 26,100 1,902 Climbing Kansas City Center
Mon 11:14:58 AM 36.4008 -97.3228 21° North 465 535 28,000 1,645 Climbing Kansas City Center
Mon 11:16:00 AM 36.5256 -97.2639 21° North 474 545 29,500 1,452 Climbing Kansas City Center
Mon 11:17:02 AM 36.6517 -97.2050 21° North 480 552 31,000 726 Climbing Kansas City Center
Mon 11:18:04 AM 36.7783 -97.1439 21° North 486 559 31,000  Level Kansas City Center
Mon 11:19:06 AM 36.9078 -97.0567 28° Northeast 503 579 31,000  Level Kansas City Center
Mon 11:20:08 AM 37.0306 -96.9761 28° Northeast 498 573 31,000  Level Kansas City Center
Mon 11:21:09 AM 37.1547 -96.8958 27° Northeast 499 574 31,000  Level Kansas City Center
Mon 11:22:11 AM 37.2764 -96.8153 28° Northeast 494 568 31,000 -194 Level Kansas City Center
Mon 11:23:13 AM 37.3986 -96.7342 28° Northeast 495 570 30,600 -726 Descending Kansas City Center
Mon 11:24:15 AM 37.5469 -96.6358 28° Northeast 499 574 29,500 -774 Descending Kansas City Center
Mon 11:25:17 AM 37.6733 -96.5542 27° Northeast 511 588 29,000 -242 Descending Kansas City Center
Mon 11:26:19 AM 37.8053 -96.4667 28° Northeast 511 588 29,000  Level Kansas City Center
Mon 11:27:21 AM 37.9358 -96.3786 28° Northeast 511 588 29,000  Level Kansas City Center
Mon 11:28:23 AM 38.0669 -96.2906 28° Northeast 513 590 29,000  Level Kansas City Center
Mon 11:29:24 AM 38.1886 -96.2086 28° Northeast 514 592 29,000  Level Kansas City Center
Mon 11:30:26 AM 38.3031 -96.1183 32° Northeast 516 594 29,000 -48 Level Kansas City Center
Mon 11:31:28 AM 38.4144 -95.9694 46° Northeast 518 596 28,900 -1,113 Descending Kansas City Center
Mon 11:32:30 AM 38.5042 -95.8436 48° Northeast 503 579 26,700 -2,371 Descending Kansas City Center
Mon 11:33:32 AM 38.6031 -95.7050 48° Northeast 475 547 24,000 -2,419 Descending Kansas City Center
Mon 11:34:34 AM 38.6839 -95.5911 48° Northeast 456 525 21,700 -2,323 Descending Kansas City Center
Mon 11:35:36 AM 38.7756 -95.4619 48° Northeast 441 507 19,200 -2,371 Descending Kansas City Center
Mon 11:36:38 AM 38.8511 -95.3581 47° Northeast 419 482 16,800 -2,419 Descending Kansas City Center
Mon 11:37:40 AM 38.9364 -95.2367 48° Northeast 413 475 14,200 -2,274 Descending Kansas City Center
Mon 11:38:42 AM 39.0075 -95.1344 48° Northeast 406 467 12,100 -1,113 Descending Kansas City Center
Mon 11:39:44 AM 39.0872 -95.0222 48° Northeast 385 443 11,900 -919 Descending Kansas City Center
Mon 11:40:46 AM 39.1603 -94.9400 41° Northeast 369 425 10,200 -1,452 Descending Kansas City Center
Mon 11:41:48 AM 39.2469 -94.8772 29° Northeast 319 367 8,900 -1,659 Descending Kansas City Center
Mon 11:42:49 AM 39.3200 -94.8317 26° Northeast 307 353 6,800 -1,610 Descending Kansas City Center
Mon 11:43:51 AM 39.4000 -94.7864 24° Northeast 272 313 5,600 -1,161 Descending Kansas City Center
Mon 11:44:53 AM 39.4319 -94.7342 52° Northeast 213 245 4,400 -1,500 Descending Kansas City Center
Mon 11:45:55 AM 39.3950 -94.6983 143° Southeast 151 174 2,500 -1,306 Descending Kansas City Center
Mon 11:46:57 AM 39.3606 -94.7100 195° South 134 154 1,700 -677 Descending Kansas City Center
Mon 11:47:59 AM 39.3264 -94.7197 192° South 131 151 1,100 -581 Descending Kansas City Center
Mon 11:49:00 AM 39.2976 -94.7139 174° South  Level Estimated

Login

Don't have an account? Register now (free) for customized features, flight alerts, and more!